Time;durP1;ratioP1;P1;durP2;ratioP2;P2;SDS_P1;SDS_P2;PMS_P1;PMS_P2;Temp;Humidity;BMP_temperature;BMP_pressure;BME280_temperature;BME280_humidity;BME280_pressure;Samples;Min_cycle;Max_cycle;Signal;HPM_P1;HPM_P2
2023/07/09 03:01:44;;;;;;;1.60;1.50;;;29.00;39.00;;;;;;5357459;23;45278;-66
2023/07/09 03:04:10;;;;;;;2.03;1.90;;;29.00;38.90;;;;;;4941708;28;44994;-68
2023/07/09 03:06:36;;;;;;;2.00;1.80;;;29.00;38.90;;;;;;4942692;28;46964;-66
2023/07/09 03:09:05;;;;;;;1.50;1.40;;;29.00;39.00;;;;;;4944672;28;45623;-67
2023/07/09 03:11:31;;;;;;;1.75;1.60;;;29.00;39.00;;;;;;4924897;28;45006;-65
2023/07/09 03:13:58;;;;;;;1.65;1.55;;;29.00;39.00;;;;;;4941726;28;44884;-64
2023/07/09 03:16:23;;;;;;;1.58;1.48;;;29.00;39.00;;;;;;4941325;28;45634;-66
2023/07/09 03:18:49;;;;;;;1.60;1.40;;;29.00;39.10;;;;;;4959565;28;45092;-66
2023/07/09 03:21:14;;;;;;;1.55;1.45;;;29.00;39.00;;;;;;4940991;28;44690;-69
2023/07/09 03:23:41;;;;;;;1.40;1.30;;;29.00;39.10;;;;;;4947556;28;45378;-63
2023/07/09 03:26:06;;;;;;;1.70;1.60;;;29.00;39.10;;;;;;4959763;28;46796;-67
2023/07/09 03:28:32;;;;;;;1.90;1.63;;;29.00;39.00;;;;;;4949298;28;45038;-68
2023/07/09 03:30:58;;;;;;;1.75;1.58;;;29.00;39.10;;;;;;4938985;28;44996;-68
2023/07/09 03:33:24;;;;;;;2.10;1.80;;;29.00;39.10;;;;;;4961824;28;45708;-66
2023/07/09 03:35:51;;;;;;;2.00;1.80;;;29.00;39.00;;;;;;4941921;28;45950;-66
2023/07/09 03:38:16;;;;;;;1.55;1.45;;;29.00;39.10;;;;;;4963819;28;45205;-63
2023/07/09 03:40:42;;;;;;;1.30;1.20;;;29.00;39.10;;;;;;4940328;28;45038;-69
2023/07/09 03:43:08;;;;;;;1.52;1.42;;;29.00;39.10;;;;;;4962647;28;45218;-66
2023/07/09 03:45:34;;;;;;;1.58;1.48;;;29.00;39.10;;;;;;4926667;28;47275;-66
2023/07/09 03:48:00;;;;;;;2.15;1.67;;;29.00;39.20;;;;;;4949297;28;45170;-68
2023/07/09 03:50:25;;;;;;;1.45;1.33;;;29.00;39.10;;;;;;4962709;28;44951;-67
2023/07/09 03:52:52;;;;;;;1.50;1.40;;;29.00;39.80;;;;;;4961513;28;45065;-63
2023/07/09 03:55:17;;;;;;;1.48;1.38;;;29.00;39.20;;;;;;4915313;28;45600;-66
2023/07/09 03:57:43;;;;;;;1.50;1.40;;;29.00;39.10;;;;;;4960831;28;44966;-65
2023/07/09 04:00:11;;;;;;;2.20;1.70;;;29.00;39.20;;;;;;4961896;28;44948;-69
2023/07/09 04:02:38;;;;;;;1.30;1.20;;;29.00;39.20;;;;;;4972959;28;45010;-62
2023/07/09 04:05:04;;;;;;;1.55;1.45;;;29.00;39.20;;;;;;4998585;28;45856;-72
2023/07/09 04:07:30;;;;;;;1.50;1.40;;;29.00;39.20;;;;;;4979495;28;44977;-66
2023/07/09 04:09:55;;;;;;;1.80;1.63;;;29.00;39.20;;;;;;5001346;28;44650;-65
2023/07/09 04:12:21;;;;;;;1.58;1.48;;;28.90;39.20;;;;;;4997211;28;45099;-68
2023/07/09 04:14:46;;;;;;;1.35;1.25;;;29.00;39.30;;;;;;5001149;28;45256;-65
2023/07/09 04:17:12;;;;;;;1.58;1.48;;;29.00;39.30;;;;;;4993155;28;44993;-66
2023/07/09 04:19:38;;;;;;;1.50;1.40;;;29.00;39.30;;;;;;4982571;28;44772;-68
2023/07/09 04:22:03;;;;;;;1.55;1.40;;;28.90;39.30;;;;;;4997276;28;45242;-67
2023/07/09 04:24:30;;;;;;;1.55;1.45;;;29.00;39.30;;;;;;4996794;28;45181;-66
2023/07/09 04:26:56;;;;;;;1.55;1.45;;;29.00;39.30;;;;;;4987686;28;45181;-66
2023/07/09 04:29:24;;;;;;;1.90;1.50;;;29.00;39.40;;;;;;4995110;28;45532;-66
2023/07/09 04:31:51;;;;;;;1.50;1.40;;;29.00;39.40;;;;;;4986640;28;45025;-67
2023/07/09 04:34:16;;;;;;;1.40;1.30;;;29.00;39.30;;;;;;4983813;28;46263;-69
2023/07/09 04:36:42;;;;;;;1.33;1.23;;;28.90;39.30;;;;;;4995002;28;45241;-65
2023/07/09 04:39:08;;;;;;;2.58;1.60;;;29.00;39.40;;;;;;4985621;28;44978;-63
2023/07/09 04:41:33;;;;;;;1.60;1.50;;;28.90;39.30;;;;;;4993990;28;47180;-65
2023/07/09 04:43:59;;;;;;;1.50;1.40;;;28.90;39.30;;;;;;4998600;28;45566;-66
2023/07/09 04:46:24;;;;;;;1.60;1.50;;;29.00;39.40;;;;;;4975435;28;44925;-66
2023/07/09 04:48:50;;;;;;;1.40;1.30;;;28.90;39.30;;;;;;4981225;28;45252;-66
2023/07/09 04:51:16;;;;;;;1.40;1.30;;;29.00;39.40;;;;;;4986145;28;45322;-66
2023/07/09 04:53:42;;;;;;;1.60;1.50;;;28.90;39.30;;;;;;4999108;28;45805;-64
2023/07/09 04:56:09;;;;;;;1.38;1.27;;;28.90;39.30;;;;;;4976127;28;45448;-67
2023/07/09 04:58:35;;;;;;;1.73;1.48;;;29.00;39.40;;;;;;5001181;28;45057;-70
2023/07/09 05:01:00;;;;;;;1.80;1.70;;;29.00;39.40;;;;;;4973863;28;44764;-68
2023/07/09 05:03:26;;;;;;;1.73;1.58;;;29.00;39.40;;;;;;4977359;28;45546;-64
2023/07/09 05:05:52;;;;;;;1.70;1.60;;;29.00;39.40;;;;;;4978529;28;45050;-70
2023/07/09 05:08:17;;;;;;;1.50;1.40;;;28.90;39.40;;;;;;4979022;28;45138;-68
2023/07/09 05:10:47;;;;;;;1.50;1.38;;;28.90;39.40;;;;;;4992442;28;45187;-67
2023/07/09 05:13:12;;;;;;;2.05;1.77;;;28.90;39.40;;;;;;4973004;28;45225;-68
2023/07/09 05:15:43;;;;;;;1.23;1.13;;;29.00;39.50;;;;;;4989094;28;44904;-65
2023/07/09 05:18:08;;;;;;;1.70;1.30;;;28.90;39.40;;;;;;4977806;28;44725;-67
2023/07/09 05:20:34;;;;;;;1.50;1.40;;;29.00;39.40;;;;;;4990908;28;45138;-64
2023/07/09 05:23:00;;;;;;;1.60;1.50;;;28.90;39.30;;;;;;4977140;28;47484;-64
2023/07/09 05:25:25;;;;;;;1.63;1.52;;;29.00;39.40;;;;;;4992803;28;45152;-67
2023/07/09 05:27:51;;;;;;;1.35;1.25;;;29.00;39.40;;;;;;4981696;28;44956;-69
2023/07/09 05:30:20;;;;;;;1.60;1.42;;;29.00;39.40;;;;;;4993795;28;44855;-66
2023/07/09 05:32:46;;;;;;;1.30;1.20;;;29.00;39.40;;;;;;4977734;28;45061;-68
2023/07/09 05:35:11;;;;;;;1.45;1.23;;;29.00;39.50;;;;;;4970960;28;45154;-69
2023/07/09 05:37:37;;;;;;;1.60;1.50;;;29.00;39.40;;;;;;4967854;28;45006;-66
2023/07/09 05:40:05;;;;;;;1.25;1.15;;;29.00;39.40;;;;;;4994979;28;45015;-71
2023/07/09 05:42:31;;;;;;;1.40;1.30;;;29.00;39.40;;;;;;4981830;28;45193;-70
2023/07/09 05:44:57;;;;;;;1.33;1.23;;;29.00;39.40;;;;;;4998458;28;45097;-62
2023/07/09 05:47:22;;;;;;;1.52;1.42;;;29.00;39.50;;;;;;4992182;28;45293;-64
2023/07/09 05:49:50;;;;;;;1.30;1.20;;;29.00;39.50;;;;;;5002433;28;45104;-62
2023/07/09 05:52:21;;;;;;;1.38;1.27;;;29.00;39.50;;;;;;4977369;28;45255;-66
2023/07/09 05:54:49;;;;;;;1.35;1.25;;;29.00;39.60;;;;;;4999479;28;45178;-69
2023/07/09 05:57:14;;;;;;;1.38;1.25;;;29.00;39.60;;;;;;4977119;28;44996;-63
2023/07/09 05:59:40;;;;;;;1.50;1.40;;;29.00;39.50;;;;;;4999890;28;45262;-65
2023/07/09 06:02:14;;;;;;;1.30;1.20;;;29.00;39.50;;;;;;4967620;28;46930;-68
2023/07/09 06:04:40;;;;;;;1.30;1.20;;;29.00;39.50;;;;;;4981017;28;45035;-64
2023/07/09 06:07:05;;;;;;;1.20;1.10;;;29.00;39.50;;;;;;4973480;28;44815;-66
2023/07/09 06:09:31;;;;;;;1.65;1.55;;;29.00;39.40;;;;;;4980953;28;45033;-66
2023/07/09 06:11:57;;;;;;;1.30;1.20;;;29.10;39.30;;;;;;4973133;28;45378;-62
2023/07/09 06:14:23;;;;;;;1.30;1.20;;;29.10;39.30;;;;;;4960929;28;44861;-64
2023/07/09 06:16:49;;;;;;;1.20;1.10;;;29.10;39.30;;;;;;4975370;28;45509;-63
2023/07/09 06:19:14;;;;;;;1.25;1.15;;;29.10;39.20;;;;;;4982778;28;45440;-66
2023/07/09 06:21:40;;;;;;;1.30;1.20;;;29.20;39.20;;;;;;4975700;28;46084;-66
2023/07/09 06:24:07;;;;;;;1.27;1.17;;;29.20;39.20;;;;;;4980104;28;45308;-66
2023/07/09 06:26:33;;;;;;;1.30;1.20;;;29.20;39.20;;;;;;4976037;28;45396;-63
2023/07/09 06:28:59;;;;;;;0.88;0.88;;;29.20;39.10;;;;;;4981265;28;45085;-69
2023/07/09 06:31:24;;;;;;;1.42;1.30;;;29.20;39.10;;;;;;4970721;28;46805;-63
2023/07/09 06:33:50;;;;;;;1.42;1.33;;;29.20;39.00;;;;;;4972504;28;45063;-67
2023/07/09 06:36:16;;;;;;;1.50;1.23;;;29.30;39.10;;;;;;4965582;28;44719;-70
2023/07/09 06:38:42;;;;;;;1.55;1.40;;;29.30;39.00;;;;;;4944777;28;44789;-64
2023/07/09 06:41:07;;;;;;;1.45;1.35;;;29.30;39.00;;;;;;4980321;28;45324;-66
2023/07/09 06:43:34;;;;;;;1.38;1.20;;;29.30;39.00;;;;;;4982764;28;44981;-63
2023/07/09 06:46:00;;;;;;;0.93;0.80;;;29.30;39.00;;;;;;4959771;28;45159;-70
2023/07/09 06:48:26;;;;;;;1.10;1.00;;;29.30;39.00;;;;;;4978262;28;45304;-66
2023/07/09 06:50:53;;;;;;;1.55;1.45;;;29.40;39.00;;;;;;4978599;28;45978;-62
2023/07/09 06:53:20;;;;;;;1.50;1.40;;;29.40;39.00;;;;;;4982506;28;44910;-70
2023/07/09 06:55:46;;;;;;;1.40;1.23;;;29.40;39.00;;;;;;4974375;28;45163;-66
2023/07/09 06:58:11;;;;;;;1.23;1.13;;;29.50;38.90;;;;;;4983136;28;45042;-67
2023/07/09 07:00:37;;;;;;;1.30;1.20;;;29.50;38.80;;;;;;4987986;28;47475;-62
2023/07/09 07:03:03;;;;;;;1.27;1.17;;;29.50;38.70;;;;;;4981012;28;44861;-64
2023/07/09 07:05:29;;;;;;;1.35;1.25;;;29.50;38.70;;;;;;4962615;28;45124;-65
2023/07/09 07:07:54;;;;;;;1.25;1.15;;;29.60;38.70;;;;;;4944679;28;44682;-64
2023/07/09 07:10:20;;;;;;;1.40;1.30;;;29.60;38.60;;;;;;4979338;28;45096;-69
2023/07/09 07:12:47;;;;;;;1.30;1.20;;;29.60;38.60;;;;;;4962690;28;45060;-66
2023/07/09 07:15:14;;;;;;;1.67;1.55;;;29.70;38.60;;;;;;4976504;28;45244;-72
2023/07/09 07:17:40;;;;;;;1.58;1.48;;;29.60;38.60;;;;;;4974459;28;45571;-63
2023/07/09 07:20:07;;;;;;;1.35;1.25;;;29.70;38.60;;;;;;4974942;28;46337;-67
2023/07/09 07:22:32;;;;;;;1.60;1.50;;;29.70;38.60;;;;;;4977185;28;45283;-66
2023/07/09 07:24:58;;;;;;;1.48;1.38;;;29.70;38.50;;;;;;4976780;28;44748;-69
2023/07/09 07:27:23;;;;;;;1.23;1.13;;;29.80;38.50;;;;;;4977840;28;45430;-66
2023/07/09 07:29:49;;;;;;;1.27;1.17;;;29.80;38.50;;;;;;4983777;28;46539;-66
2023/07/09 07:32:14;;;;;;;1.38;1.27;;;29.80;38.40;;;;;;5004133;22;44680;-82
2023/07/09 07:34:40;;;;;;;1.45;1.35;;;29.80;38.40;;;;;;4973606;28;45194;-82
2023/07/09 07:37:06;;;;;;;1.40;1.30;;;29.80;38.40;;;;;;4965082;28;45007;-82
2023/07/09 07:39:31;;;;;;;1.67;1.50;;;29.80;38.30;;;;;;5009786;28;45191;-82
2023/07/09 07:41:57;;;;;;;1.40;1.30;;;29.80;38.30;;;;;;4984309;28;45324;-82
2023/07/09 07:44:24;;;;;;;1.58;1.30;;;29.80;38.30;;;;;;5006385;28;45447;-82
2023/07/09 07:46:49;;;;;;;1.90;1.67;;;29.90;38.30;;;;;;4986191;28;45099;-82
2023/07/09 07:49:15;;;;;;;1.55;1.45;;;29.90;38.30;;;;;;4986717;28;46050;-82
2023/07/09 07:51:41;;;;;;;1.42;1.33;;;29.90;38.30;;;;;;4982276;28;45313;-83
2023/07/09 07:54:10;;;;;;;1.40;1.30;;;30.00;38.30;;;;;;4979040;28;45362;-83
2023/07/09 07:56:36;;;;;;;1.33;1.23;;;30.00;38.20;;;;;;4947973;28;45023;-82
2023/07/09 07:59:02;;;;;;;1.20;1.10;;;30.00;38.20;;;;;;5005080;28;45357;-82
2023/07/09 08:01:29;;;;;;;1.40;1.13;;;30.00;38.20;;;;;;4951798;28;44887;-82
2023/07/09 08:03:54;;;;;;;1.67;1.58;;;30.00;38.10;;;;;;4954478;28;45418;-83
2023/07/09 08:06:21;;;;;;;1.40;1.30;;;30.10;38.20;;;;;;4953883;28;45515;-83
2023/07/09 08:08:50;;;;;;;1.20;1.10;;;30.00;38.10;;;;;;5010079;28;48127;-82
2023/07/09 08:11:17;;;;;;;1.70;1.20;;;30.10;38.10;;;;;;4981266;28;44927;-83
2023/07/09 08:13:43;;;;;;;1.58;1.48;;;30.10;38.10;;;;;;4973078;28;45521;-82
2023/07/09 08:16:11;;;;;;;1.33;1.20;;;30.10;38.10;;;;;;4980279;28;45331;-82
2023/07/09 08:18:37;;;;;;;1.70;1.60;;;30.10;38.10;;;;;;4970689;28;45566;-82
2023/07/09 08:21:03;;;;;;;1.48;1.38;;;30.10;38.00;;;;;;4949585;28;45237;-82
2023/07/09 08:23:29;;;;;;;1.52;1.42;;;30.20;38.00;;;;;;4970198;28;45347;-83
2023/07/09 08:25:59;;;;;;;1.50;1.33;;;30.20;38.00;;;;;;4995854;28;44841;-82
2023/07/09 08:28:25;;;;;;;1.33;1.23;;;30.20;38.00;;;;;;4983156;28;45665;-82
2023/07/09 08:30:54;;;;;;;1.23;1.13;;;30.20;38.00;;;;;;4949427;28;45282;-81
2023/07/09 08:33:21;;;;;;;1.38;1.27;;;30.20;38.00;;;;;;4991073;28;45114;-83
2023/07/09 08:35:49;;;;;;;1.60;1.42;;;30.20;37.90;;;;;;4979082;28;45151;-82
2023/07/09 08:38:15;;;;;;;1.20;1.10;;;30.20;37.90;;;;;;4984804;28;46359;-82
2023/07/09 08:40:43;;;;;;;1.33;1.23;;;30.20;38.00;;;;;;4971791;28;45231;-83
2023/07/09 08:43:41;;;;;;;1.77;1.40;;;30.30;38.00;;;;;;5004636;28;45563;-82
2023/07/09 08:46:24;;;;;;;1.30;1.20;;;30.30;37.90;;;;;;4987033;28;45563;-82
2023/07/09 08:48:50;;;;;;;2.10;1.30;;;30.30;38.00;;;;;;4971035;28;45577;-82
2023/07/09 08:51:24;;;;;;;1.40;1.30;;;30.30;38.00;;;;;;4958406;28;45199;-82
2023/07/09 08:53:59;;;;;;;1.48;1.38;;;30.30;37.90;;;;;;5002309;28;45269;-83
2023/07/09 08:56:26;;;;;;;1.20;1.10;;;30.30;37.90;;;;;;4960109;28;45541;-82
2023/07/09 08:58:53;;;;;;;1.60;1.50;;;30.30;37.90;;;;;;4973093;28;45442;-83
2023/07/09 09:01:24;;;;;;;1.48;1.38;;;30.30;37.90;;;;;;4971898;28;45242;-82
2023/07/09 09:03:53;;;;;;;1.30;1.20;;;30.40;38.00;;;;;;4985253;28;44925;-82
2023/07/09 09:06:37;;;;;;;1.63;1.35;;;30.40;37.90;;;;;;4965455;28;45228;-82
2023/07/09 09:09:05;;;;;;;1.67;1.58;;;30.40;37.90;;;;;;4972650;28;45220;-83
2023/07/09 09:11:46;;;;;;;1.65;1.50;;;30.40;37.90;;;;;;4972723;28;45187;-82
2023/07/09 09:14:25;;;;;;;1.27;1.17;;;30.40;37.90;;;;;;4983777;28;44937;-81
2023/07/09 09:16:51;;;;;;;1.45;1.35;;;30.40;37.90;;;;;;4955873;28;45246;-82
2023/07/09 09:19:23;;;;;;;1.77;1.00;;;30.40;37.90;;;;;;4998437;28;46298;-82
2023/07/09 09:21:52;;;;;;;1.30;1.20;;;30.50;37.90;;;;;;4975858;28;45638;-81
2023/07/09 09:24:21;;;;;;;1.40;1.30;;;30.50;37.90;;;;;;4977685;28;45377;-82
2023/07/09 09:26:47;;;;;;;1.27;1.10;;;30.50;37.90;;;;;;4986511;28;45141;-82
2023/07/09 09:29:14;;;;;;;1.52;1.42;;;30.50;37.90;;;;;;4961796;28;46066;-82
2023/07/09 09:31:41;;;;;;;1.40;1.30;;;30.50;37.90;;;;;;4953910;28;45207;-83
2023/07/09 09:34:17;;;;;;;1.27;1.13;;;30.50;37.80;;;;;;4974835;28;45093;-82
2023/07/09 09:36:42;;;;;;;1.40;1.08;;;30.60;37.90;;;;;;4967774;28;45065;-82
2023/07/09 09:39:09;;;;;;;1.33;1.23;;;30.60;37.90;;;;;;4991173;28;45625;-82
2023/07/09 09:41:35;;;;;;;1.42;1.33;;;30.60;38.50;;;;;;4965657;28;45268;-83
2023/07/09 09:44:00;;;;;;;1.35;1.25;;;30.60;37.90;;;;;;4986485;28;45224;-82
2023/07/09 09:46:29;;;;;;;1.23;1.13;;;30.60;37.80;;;;;;4973780;28;45152;-82
2023/07/09 09:48:58;;;;;;;1.10;1.10;;;30.60;37.80;;;;;;4985942;28;45464;-82
2023/07/09 09:51:24;;;;;;;1.50;1.40;;;30.60;37.80;;;;;;4965717;28;45247;-82
2023/07/09 09:53:51;;;;;;;1.30;1.20;;;30.70;37.90;;;;;;4969795;28;45384;-82
2023/07/09 09:56:30;;;;;;;1.27;1.17;;;30.60;37.80;;;;;;4995332;28;45202;-82
2023/07/09 09:58:56;;;;;;;1.10;1.10;;;30.70;37.80;;;;;;4979086;28;47101;-82
2023/07/09 10:01:29;;;;;;;1.33;1.02;;;30.70;37.90;;;;;;4960786;28;44734;-82
2023/07/09 10:03:56;;;;;;;1.27;1.17;;;30.70;37.80;;;;;;4972434;28;45385;-82
2023/07/09 10:06:34;;;;;;;1.48;1.33;;;30.70;37.80;;;;;;4966097;28;45294;-83
2023/07/09 10:09:18;;;;;;;1.25;1.15;;;30.70;37.80;;;;;;4980713;28;45597;-82
2023/07/09 10:11:43;;;;;;;1.63;1.52;;;30.70;37.80;;;;;;5004519;28;45019;-83
2023/07/09 10:14:31;;;;;;;1.30;1.20;;;30.80;37.90;;;;;;4984389;28;45681;-82
2023/07/09 10:17:05;;;;;;;1.00;0.95;;;30.80;37.80;;;;;;4993028;28;44731;-83
2023/07/09 10:19:48;;;;;;;1.40;1.30;;;30.80;37.80;;;;;;5021349;28;45337;-83
2023/07/09 10:22:20;;;;;;;1.02;0.98;;;30.80;37.80;;;;;;4982695;28;45090;-83
2023/07/09 10:24:53;;;;;;;1.40;1.30;;;30.80;37.80;;;;;;4957914;28;45254;-82
2023/07/09 10:27:42;;;;;;;0.82;0.82;;;30.90;37.80;;;;;;4997575;28;45464;-82
2023/07/09 10:30:43;;;;;;;1.20;1.10;;;30.80;37.70;;;;;;4973873;28;45308;-81
2023/07/09 10:33:10;;;;;;;1.10;1.00;;;30.90;37.80;;;;;;4985418;28;45309;-83
2023/07/09 10:35:50;;;;;;;0.93;0.90;;;30.90;37.80;;;;;;4961272;28;45268;-82
2023/07/09 10:38:25;;;;;;;1.13;1.02;;;30.90;37.80;;;;;;4977669;28;45091;-81
2023/07/09 10:40:53;;;;;;;1.20;1.10;;;30.90;37.80;;;;;;4967643;28;46705;-81
2023/07/09 10:43:45;;;;;;;1.00;1.00;;;30.90;37.80;;;;;;5009308;28;45350;-82
2023/07/09 10:46:14;;;;;;;1.13;1.02;;;31.00;37.80;;;;;;4957593;28;45119;-82
2023/07/09 10:48:45;;;;;;;1.00;0.90;;;30.90;37.80;;;;;;4972138;28;45552;-81
2023/07/09 10:51:26;;;;;;;1.17;1.08;;;31.00;37.80;;;;;;4977289;28;45561;-81
2023/07/09 10:54:18;;;;;;;1.20;1.10;;;31.00;37.80;;;;;;4990927;28;45423;-81
2023/07/09 10:56:44;;;;;;;1.30;1.20;;;31.00;37.80;;;;;;4962275;28;45524;-81
2023/07/09 10:59:33;;;;;;;1.35;1.25;;;31.00;37.80;;;;;;4977715;28;45326;-82
2023/07/09 11:02:16;;;;;;;1.20;1.10;;;31.00;37.70;;;;;;4961610;28;45625;-82
2023/07/09 11:05:10;;;;;;;0.80;0.80;;;31.00;37.80;;;;;;4986546;28;44911;-82
2023/07/09 11:07:43;;;;;;;1.48;1.38;;;31.00;37.70;;;;;;4980056;28;45409;-83
2023/07/09 11:10:23;;;;;;;1.17;1.08;;;31.00;37.70;;;;;;4988220;28;45388;-82
2023/07/09 11:13:16;;;;;;;1.33;1.20;;;31.00;37.80;;;;;;4973909;28;45369;-81
2023/07/09 11:15:47;;;;;;;1.35;1.02;;;31.10;37.80;;;;;;4990340;28;45236;-82
2023/07/09 11:18:17;;;;;;;1.30;1.20;;;31.00;37.70;;;;;;4989278;28;45332;-81
2023/07/09 11:20:44;;;;;;;1.10;1.00;;;31.10;37.80;;;;;;4978350;28;45153;-82
2023/07/09 11:23:21;;;;;;;1.20;1.10;;;31.10;37.80;;;;;;4977640;28;46737;-82
2023/07/09 11:26:02;;;;;;;1.05;1.05;;;31.10;37.80;;;;;;4991495;28;45484;-83
2023/07/09 11:28:35;;;;;;;1.10;1.00;;;31.10;37.80;;;;;;4991267;28;45894;-83
2023/07/09 11:31:38;;;;;;;1.13;1.02;;;31.20;37.80;;;;;;5074092;27;59778;-64
2023/07/09 11:34:07;;;;;;;1.40;1.30;;;31.20;37.80;;;;;;5059796;27;45134;-68
2023/07/09 11:36:33;;;;;;;1.83;1.20;;;31.20;37.80;;;;;;5055695;28;45031;-64
2023/07/09 11:38:58;;;;;;;0.88;0.88;;;31.20;37.70;;;;;;5059153;28;44903;-65
2023/07/09 11:41:36;;;;;;;1.10;1.10;;;31.20;37.70;;;;;;5058817;28;46261;-65
2023/07/09 11:44:20;;;;;;;1.30;1.20;;;31.20;37.80;;;;;;5055496;28;59510;-67
2023/07/09 11:46:49;;;;;;;1.05;1.00;;;31.20;37.70;;;;;;5052613;28;44922;-66
2023/07/09 11:49:14;;;;;;;1.13;1.02;;;31.20;37.70;;;;;;5056438;28;44904;-67
2023/07/09 11:51:49;;;;;;;1.20;1.10;;;31.20;37.70;;;;;;5055973;28;46548;-66
2023/07/09 11:54:15;;;;;;;0.90;0.90;;;31.20;37.70;;;;;;5050985;28;45325;-65
2023/07/09 11:56:40;;;;;;;1.05;0.95;;;31.20;37.70;;;;;;5035619;28;45114;-65
2023/07/09 11:59:07;;;;;;;1.10;1.00;;;31.20;37.70;;;;;;5055383;28;44968;-64
2023/07/09 12:01:43;;;;;;;1.10;1.00;;;31.30;37.80;;;;;;5046534;28;45298;-66
2023/07/09 12:04:16;;;;;;;1.30;1.20;;;31.20;37.70;;;;;;5054549;28;44848;-68
2023/07/09 12:06:41;;;;;;;1.10;1.00;;;31.30;37.80;;;;;;5048797;28;45081;-64
2023/07/09 12:09:15;;;;;;;0.90;0.90;;;31.30;37.80;;;;;;5049350;28;44747;-66
2023/07/09 12:11:44;;;;;;;1.10;1.00;;;31.20;37.70;;;;;;5051810;28;45196;-67
2023/07/09 12:14:11;;;;;;;1.40;1.30;;;31.30;37.80;;;;;;5058946;28;45827;-64
2023/07/09 12:17:07;;;;;;;1.13;1.02;;;31.30;37.80;;;;;;5022958;28;45520;-66
2023/07/09 12:19:33;;;;;;;0.90;0.88;;;31.30;37.80;;;;;;5054886;28;45143;-66
2023/07/09 12:21:58;;;;;;;1.25;1.15;;;31.30;37.80;;;;;;5053399;28;45908;-63
2023/07/09 12:24:27;;;;;;;1.10;1.00;;;31.30;37.80;;;;;;5055835;28;44945;-68
2023/07/09 12:26:54;;;;;;;1.35;1.23;;;31.30;37.80;;;;;;5048060;28;46501;-66
2023/07/09 12:29:19;;;;;;;0.90;0.90;;;31.30;37.80;;;;;;5055777;28;44891;-64
2023/07/09 12:31:45;;;;;;;1.15;1.08;;;31.30;37.80;;;;;;5046487;28;45395;-67
2023/07/09 12:34:13;;;;;;;2.42;1.13;;;31.30;37.80;;;;;;5054104;28;45307;-64
2023/07/09 12:36:38;;;;;;;1.20;1.10;;;31.30;37.80;;;;;;5051634;28;45958;-64
2023/07/09 12:39:04;;;;;;;1.13;1.02;;;31.30;37.80;;;;;;5039751;28;45118;-65
2023/07/09 12:41:40;;;;;;;1.00;0.90;;;31.40;37.80;;;;;;5047109;28;46433;-65
2023/07/09 12:44:05;;;;;;;1.27;1.17;;;31.40;37.90;;;;;;5024136;28;44579;-68
2023/07/09 12:46:31;;;;;;;1.30;1.20;;;31.40;37.90;;;;;;5034047;28;44988;-66
2023/07/09 12:48:57;;;;;;;1.10;1.00;;;31.40;37.80;;;;;;5042124;28;45095;-67
2023/07/09 12:51:27;;;;;;;1.40;1.30;;;31.40;37.90;;;;;;5033347;28;45587;-66
2023/07/09 12:54:15;;;;;;;1.10;1.00;;;31.40;37.80;;;;;;5042310;28;44678;-67
2023/07/09 12:56:41;;;;;;;1.10;1.00;;;31.40;37.80;;;;;;5036301;28;45117;-65
2023/07/09 12:59:20;;;;;;;1.00;0.93;;;31.40;37.80;;;;;;5043704;28;44854;-66
2023/07/09 13:02:01;;;;;;;1.13;1.02;;;31.40;38.50;;;;;;5032352;28;45336;-66
2023/07/09 13:04:35;;;;;;;1.20;1.10;;;31.40;37.80;;;;;;5043057;28;45336;-65
2023/07/09 13:07:01;;;;;;;1.00;1.00;;;31.40;37.80;;;;;;5034911;28;44952;-63
2023/07/09 13:09:27;;;;;;;1.10;1.00;;;31.40;37.80;;;;;;5042012;28;44865;-68
2023/07/09 13:11:53;;;;;;;0.98;0.93;;;31.40;37.80;;;;;;5017966;28;46459;-68
2023/07/09 13:14:21;;;;;;;1.20;1.10;;;31.40;37.80;;;;;;5042902;28;45240;-68
2023/07/09 13:16:47;;;;;;;0.98;0.88;;;31.40;37.80;;;;;;5031954;28;45034;-67
2023/07/09 13:19:13;;;;;;;1.38;1.10;;;31.50;37.90;;;;;;5022123;28;46201;-67
2023/07/09 13:21:38;;;;;;;1.05;0.95;;;31.50;37.90;;;;;;5027220;28;45196;-67
2023/07/09 13:24:25;;;;;;;1.00;0.90;;;31.50;37.90;;;;;;5024591;28;45253;-66
2023/07/09 13:26:50;;;;;;;0.98;0.98;;;31.50;37.90;;;;;;5032442;28;44595;-73
2023/07/09 13:29:17;;;;;;;1.10;1.00;;;31.50;37.90;;;;;;5041738;28;44957;-66
2023/07/09 13:31:44;;;;;;;1.10;1.00;;;31.50;37.90;;;;;;5044987;28;45680;-69
2023/07/09 13:34:22;;;;;;;1.40;1.17;;;31.50;37.90;;;;;;5038547;28;44965;-64
2023/07/09 13:36:48;;;;;;;1.23;1.13;;;31.50;37.90;;;;;;5023615;28;44699;-67
2023/07/09 13:39:15;;;;;;;1.33;1.00;;;31.50;37.90;;;;;;5042153;28;44817;-67
2023/07/09 13:41:45;;;;;;;0.98;0.90;;;31.50;37.90;;;;;;5053507;28;46106;-64
2023/07/09 13:44:19;;;;;;;1.20;1.10;;;31.50;37.90;;;;;;5032923;28;45708;-70
2023/07/09 13:46:45;;;;;;;1.40;1.00;;;31.60;38.00;;;;;;5016625;28;45084;-69
2023/07/09 13:49:17;;;;;;;1.45;1.20;;;31.60;38.00;;;;;;5045267;28;45117;-70
2023/07/09 13:51:44;;;;;;;0.83;0.83;;;31.50;37.90;;;;;;5031080;28;45827;-69
2023/07/09 13:54:24;;;;;;;1.05;0.98;;;31.60;38.00;;;;;;5014450;28;45191;-67
2023/07/09 13:56:50;;;;;;;1.20;1.10;;;31.60;38.00;;;;;;5037462;28;44917;-66
2023/07/09 13:59:26;;;;;;;1.05;1.00;;;31.60;38.00;;;;;;5040367;28;45939;-72
2023/07/09 14:01:54;;;;;;;0.82;0.82;;;31.60;38.00;;;;;;5029783;28;45325;-69
2023/07/09 14:04:20;;;;;;;1.20;1.10;;;31.60;38.00;;;;;;5006531;28;44827;-65
2023/07/09 14:06:46;;;;;;;1.20;1.08;;;31.60;38.00;;;;;;5037593;28;44932;-66
2023/07/09 14:09:12;;;;;;;1.20;1.10;;;31.60;38.00;;;;;;5021481;28;45338;-71
2023/07/09 14:11:47;;;;;;;1.20;1.10;;;31.60;38.00;;;;;;5015302;28;47612;-67
2023/07/09 14:14:21;;;;;;;0.90;0.90;;;31.60;38.00;;;;;;5041617;28;46176;-62
2023/07/09 14:16:47;;;;;;;0.90;0.90;;;31.70;38.00;;;;;;5028327;28;44933;-61
2023/07/09 14:19:21;;;;;;;1.35;1.25;;;31.60;38.00;;;;;;5041188;28;44929;-66
2023/07/09 14:21:47;;;;;;;1.00;0.90;;;31.70;38.00;;;;;;5037322;28;46643;-63
2023/07/09 14:24:23;;;;;;;0.73;0.73;;;31.70;38.10;;;;;;5036484;28;45068;-63
2023/07/09 14:26:50;;;;;;;1.10;1.00;;;31.70;38.10;;;;;;5022126;28;45303;-67
2023/07/09 14:29:16;;;;;;;0.90;0.90;;;31.60;38.00;;;;;;5044905;28;45198;-63
2023/07/09 14:31:42;;;;;;;0.88;0.88;;;31.70;38.00;;;;;;5028223;28;45796;-66
2023/07/09 14:34:23;;;;;;;1.00;1.00;;;31.70;38.10;;;;;;5040685;28;44986;-69
2023/07/09 14:36:50;;;;;;;0.95;0.95;;;31.70;38.10;;;;;;5040244;28;44908;-65
2023/07/09 14:39:15;;;;;;;0.75;0.75;;;31.70;38.10;;;;;;5057529;28;44682;-66
2023/07/09 14:41:42;;;;;;;1.38;1.00;;;31.70;38.10;;;;;;5054457;28;45488;-66
2023/07/09 14:44:30;;;;;;;1.15;0.98;;;31.70;38.10;;;;;;5055756;28;45022;-68
2023/07/09 14:46:57;;;;;;;0.80;0.80;;;31.70;38.10;;;;;;5049560;28;45219;-66
2023/07/09 14:49:23;;;;;;;1.20;1.10;;;31.70;38.10;;;;;;5059965;28;44933;-67
2023/07/09 14:51:49;;;;;;;1.38;1.27;;;31.70;38.10;;;;;;5040346;28;45914;-64
2023/07/09 14:54:28;;;;;;;0.95;0.90;;;31.70;38.10;;;;;;5053968;28;44884;-63
2023/07/09 14:56:55;;;;;;;1.20;1.10;;;31.70;38.10;;;;;;5038957;28;44825;-67
2023/07/09 14:59:20;;;;;;;1.10;1.00;;;31.70;38.10;;;;;;5061927;28;44937;-65
2023/07/09 15:01:46;;;;;;;0.98;0.90;;;31.70;38.10;;;;;;5046327;28;45057;-65
2023/07/09 15:04:20;;;;;;;1.15;1.05;;;31.70;38.10;;;;;;5035217;28;46511;-64
2023/07/09 15:06:50;;;;;;;0.80;0.80;;;31.80;38.20;;;;;;5030260;28;44654;-64
2023/07/09 15:09:17;;;;;;;1.05;1.05;;;31.80;38.10;;;;;;5036387;28;44726;-65
2023/07/09 15:11:45;;;;;;;1.48;0.95;;;31.80;38.10;;;;;;5034244;28;45449;-72
2023/07/09 15:14:11;;;;;;;1.00;1.00;;;31.70;38.00;;;;;;5024421;28;46129;-66
2023/07/09 15:16:36;;;;;;;1.08;1.08;;;31.80;38.10;;;;;;5012616;28;45118;-66
2023/07/09 15:19:07;;;;;;;1.00;1.00;;;31.70;38.00;;;;;;5060539;28;44975;-73
2023/07/09 15:21:33;;;;;;;0.93;0.93;;;31.80;38.10;;;;;;5035321;28;45833;-64
2023/07/09 15:23:58;;;;;;;1.08;1.00;;;31.80;38.10;;;;;;5052040;28;45111;-64
2023/07/09 15:26:24;;;;;;;0.80;0.80;;;31.80;38.10;;;;;;5055935;28;44986;-69
2023/07/09 15:28:50;;;;;;;1.20;1.10;;;31.80;38.10;;;;;;5040719;28;45858;-69
2023/07/09 15:31:15;;;;;;;1.05;0.98;;;31.80;38.10;;;;;;5043200;28;45401;-66
2023/07/09 15:33:41;;;;;;;0.93;0.93;;;31.80;38.10;;;;;;5040336;28;44991;-67
2023/07/09 15:36:11;;;;;;;0.82;0.82;;;31.80;38.10;;;;;;5036406;28;44830;-66
2023/07/09 15:38:40;;;;;;;0.93;0.80;;;31.80;38.10;;;;;;5023232;28;44819;-65
2023/07/09 15:41:11;;;;;;;0.82;0.82;;;31.80;38.10;;;;;;5034899;28;46108;-68
2023/07/09 15:43:36;;;;;;;0.90;0.90;;;31.80;38.10;;;;;;5009574;28;45215;-65
2023/07/09 15:46:02;;;;;;;0.80;0.80;;;31.80;38.10;;;;;;5047155;28;44897;-72
2023/07/09 15:48:32;;;;;;;0.88;0.88;;;31.80;38.10;;;;;;5020035;28;45425;-67
2023/07/09 15:50:58;;;;;;;0.90;0.90;;;31.80;38.10;;;;;;5055405;28;46297;-60
2023/07/09 15:53:24;;;;;;;1.08;0.90;;;31.80;38.10;;;;;;5053532;28;46946;-65
2023/07/09 15:55:50;;;;;;;0.93;0.90;;;31.80;38.10;;;;;;5036171;28;45079;-65
2023/07/09 15:58:23;;;;;;;1.20;1.10;;;31.80;38.10;;;;;;5041937;28;44739;-66